NKHPG NZ17-NZHT

Flight info

Callsign NKHPG
Flight time N/A
Altitude 4500
Route VFR
Aircraft B58/L-GUV/C

Departure

Time N/A
Airport NZ17

Arrival

Time 2026-04-11 23:43
Airport Haast Aerodrome (NZHT)
Time Latitude Longitude Altitude Speed Heading
2026-04-11 23:28 -43.99755 168.66083 19 ft 0 kts 187°
2026-04-11 23:29 -43.99756 168.66082 19 ft 2 kts 198°
2026-04-11 23:30 -43.99758 168.66081 16 ft 0 kts 190°
2026-04-11 23:31 -43.99700 168.66049 15 ft 4 kts 26°
2026-04-11 23:31 -43.99680 168.66026 15 ft 4 kts 302°
2026-04-11 23:31 -43.99665 168.66001 15 ft 3 kts 314°
2026-04-11 23:31 -43.99656 168.65974 15 ft 3 kts 285°
2026-04-11 23:32 -43.99656 168.65972 15 ft 0 kts 285°
2026-04-11 23:32 -43.99656 168.65971 15 ft 0 kts 286°
2026-04-11 23:32 -43.99655 168.65970 15 ft 1 kts 300°
2026-04-11 23:33 -43.99647 168.65966 15 ft 2 kts 20°
2026-04-11 23:33 -43.99647 168.65981 15 ft 2 kts 130°
2026-04-11 23:33 -43.99650 168.65986 15 ft 0 kts 132°
2026-04-11 23:33 -43.99682 168.66042 15 ft 37 kts 126°
2026-04-11 23:34 -43.99974 168.66614 66 ft 95 kts 123°
2026-04-11 23:34 -44.00258 168.67553 256 ft 122 kts 85°
2026-04-11 23:34 -43.99879 168.68702 465 ft 142 kts 57°
2026-04-11 23:34 -43.99361 168.69883 850 ft 143 kts 62°
2026-04-11 23:35 -43.98937 168.71151 1133 ft 150 kts 63°
2026-04-11 23:35 -43.98486 168.72413 1677 ft 138 kts 58°
2026-04-11 23:35 -43.97987 168.73700 1645 ft 165 kts 59°
2026-04-11 23:35 -43.97379 168.75165 1560 ft 183 kts 57°
2026-04-11 23:36 -43.96724 168.76715 1543 ft 189 kts 59°
2026-04-11 23:36 -43.96250 168.78379 1545 ft 183 kts 69°
2026-04-11 23:36 -43.95866 168.80043 1551 ft 180 kts 69°
2026-04-11 23:36 -43.95383 168.81628 1544 ft 177 kts 53°
2026-04-11 23:37 -43.94542 168.82840 1551 ft 178 kts 38°
2026-04-11 23:37 -43.93573 168.83938 1551 ft 181 kts 37°
2026-04-11 23:37 -43.92600 168.85051 1552 ft 182 kts 38°
2026-04-11 23:37 -43.91621 168.86162 1547 ft 182 kts 37°
2026-04-11 23:38 -43.90633 168.87271 1547 ft 185 kts 37°
2026-04-11 23:38 -43.89630 168.88416 1548 ft 188 kts 39°
2026-04-11 23:38 -43.88625 168.89592 1551 ft 190 kts 42°
2026-04-11 23:38 -43.87745 168.90976 1549 ft 191 kts 49°
2026-04-11 23:39 -43.86891 168.92380 1551 ft 190 kts 49°
2026-04-11 23:39 -43.86042 168.93758 1547 ft 186 kts 48°
2026-04-11 23:39 -43.85294 168.95201 1537 ft 184 kts 58°
2026-04-11 23:39 -43.84645 168.96697 1539 ft 179 kts 58°
2026-04-11 23:40 -43.84064 168.98193 1570 ft 174 kts 65°
2026-04-11 23:40 -43.83898 168.99689 1487 ft 152 kts 95°
2026-04-11 23:40 -43.84257 169.01001 1358 ft 144 kts 122°
2026-04-11 23:40 -43.85001 169.01977 991 ft 151 kts 149°
2026-04-11 23:41 -43.85957 169.02452 818 ft 139 kts 167°
2026-04-11 23:41 -43.86850 169.02503 644 ft 118 kts 184°
2026-04-11 23:41 -43.87637 169.02525 460 ft 109 kts 169°
2026-04-11 23:41 -43.88188 169.03100 392 ft 100 kts 105°
2026-04-11 23:42 -43.87991 169.03943 310 ft 96 kts 33°
2026-04-11 23:42 -43.87327 169.04136 143 ft 100 kts
2026-04-11 23:42 -43.86656 169.04132 33 ft 89 kts 358°
2026-04-11 23:43 -43.86176 169.04169 23 ft 6 kts 81°
2026-04-11 23:43 -43.86169 169.04200 22 ft 2 kts 65°
2026-04-11 23:43 -43.86169 169.04201 22 ft 0 kts 65°
2026-04-11 23:47 -43.86175 169.04225 24 ft 6 kts 192°
2026-04-11 23:47 -43.86193 169.04195 26 ft 3 kts 251°
2026-04-11 23:47 -43.86198 169.04172 27 ft 1 kts 261°
2026-04-11 23:47 -43.86198 169.04133 27 ft 6 kts 265°
2026-04-11 23:48 -43.86207 169.04105 27 ft 0 kts 192°
2026-04-11 23:48 -43.86210 169.04102 27 ft 0 kts 233°
2026-04-11 23:48 -43.86213 169.04097 27 ft 0 kts 237°
2026-04-11 23:48 -43.86214 169.04094 27 ft 3 kts 243°
2026-04-11 23:49 -43.86191 169.04091 27 ft 5 kts 57°
2026-04-11 23:49 -43.86200 169.04112 27 ft 0 kts 185°
2026-04-11 23:49 -43.86201 169.04112 27 ft 5 kts 185°
2026-04-11 23:49 -43.86549 169.04124 26 ft 88 kts 177°
2026-04-11 23:50 -43.87293 169.04163 191 ft 116 kts 174°
2026-04-11 23:50 -43.88036 169.04720 491 ft 131 kts 138°
2026-04-11 23:50 -43.88710 169.05585 939 ft 133 kts 137°
2026-04-11 23:50 -43.89398 169.06451 1425 ft 132 kts 137°
2026-04-11 23:51 -43.90101 169.07285 1902 ft 134 kts 137°
2026-04-11 23:51 -43.90782 169.08148 2359 ft 134 kts 135°
2026-04-11 23:51 -43.91420 169.09056 2871 ft 130 kts 131°
2026-04-11 23:51 -43.92044 169.09996 3298 ft 136 kts 133°
2026-04-11 23:52 -43.92760 169.10852 3825 ft 131 kts 142°
2026-04-11 23:52 -43.93596 169.11348 4366 ft 130 kts 174°
2026-04-11 23:52 -43.94519 169.11260 4866 ft 138 kts 194°
2026-04-11 23:52 -43.95505 169.11067 5447 ft 148 kts 173°
2026-04-11 23:53 -43.96618 169.11127 5671 ft 174 kts 181°
2026-04-11 23:53 -43.97916 169.11234 5934 ft 198 kts 179°
2026-04-11 23:53 -43.99367 169.11393 5875 ft 215 kts 169°
2026-04-11 23:53 -44.00612 169.12033 6863 ft 177 kts 143°
2026-04-11 23:54 -44.01716 169.13068 6916 ft 205 kts 142°
2026-04-11 23:54 -44.02902 169.14130 7147 ft 204 kts 143°
2026-04-11 23:54 -44.04028 169.15411 7077 ft 226 kts 138°
2026-04-11 23:54 -44.05302 169.16777 7230 ft 230 kts 147°
2026-04-11 23:55 -44.06566 169.17973 7500 ft 222 kts 144°
2026-04-11 23:55 -44.07876 169.19272 7399 ft 234 kts 142°
2026-04-11 23:55 -44.09380 169.20219 7344 ft 250 kts 166°
2026-04-11 23:55 -44.11123 169.20643 7257 ft 261 kts 174°
2026-04-11 23:56 -44.12920 169.21065 7133 ft 265 kts 173°
2026-04-11 23:56 -44.14764 169.21450 6987 ft 262 kts 171°
2026-04-11 23:56 -44.16495 169.22202 6845 ft 257 kts 159°
2026-04-11 23:56 -44.18100 169.23102 6728 ft 246 kts 159°
2026-04-11 23:57 -44.19659 169.23990 6606 ft 239 kts 156°
2026-04-11 23:57 -44.21166 169.25007 6469 ft 237 kts 153°
2026-04-11 23:57 -44.22619 169.26032 6498 ft 237 kts 154°
2026-04-11 23:57 -44.24106 169.27058 6559 ft 239 kts 153°
2026-04-11 23:58 -44.25598 169.28083 6611 ft 238 kts 155°
2026-04-11 23:58 -44.27070 169.29145 6572 ft 239 kts 155°
2026-04-11 23:58 -44.28568 169.29996 6559 ft 219 kts 162°
2026-04-11 23:58 -44.29966 169.30800 6593 ft 219 kts 155°
2026-04-11 23:59 -44.31358 169.31638 6586 ft 215 kts 160°
2026-04-11 23:59 -44.32734 169.32355 6698 ft 205 kts 159°
2026-04-11 23:59 -44.33617 169.32835 6522 ft 200 kts 160°
2026-04-11 23:59 -44.34877 169.33582 6596 ft 202 kts 158°
2026-04-12 00:00 -44.36218 169.34098 6542 ft 197 kts 178°
2026-04-12 00:00 -44.37566 169.34204 6610 ft 198 kts 184°
2026-04-12 00:00 -44.38935 169.34022 6614 ft 198 kts 196°
2026-04-12 00:00 -44.40301 169.33598 6500 ft 202 kts 206°
2026-04-12 00:01 -44.41428 169.32714 6215 ft 176 kts 220°
2026-04-12 00:01 -44.42479 169.31747 5249 ft 188 kts 222°
2026-04-12 00:01 -44.43507 169.30710 4507 ft 180 kts 228°
2026-04-12 00:01 -44.44279 169.29613 3903 ft 149 kts 219°
2026-04-12 00:02 -44.45197 169.29659 3436 ft 135 kts 138°
2026-04-12 00:02 -44.45420 169.30857 2875 ft 132 kts 72°
2026-04-12 00:02 -44.45240 169.32122 2417 ft 132 kts 71°
2026-04-12 00:02 -44.45052 169.33330 2097 ft 128 kts 71°
2026-04-12 00:03 -44.44822 169.34515 1870 ft 122 kts 66°
2026-04-12 00:03 -44.44592 169.35635 1725 ft 118 kts 64°
2026-04-12 00:03 -44.44312 169.36679 1571 ft 107 kts 62°
2026-04-12 00:03 -44.44064 169.37678 1393 ft 107 kts 68°
2026-04-12 00:04 -44.43898 169.38658 1251 ft 100 kts 68°
2026-04-12 00:04 -44.43750 169.39472 1285 ft 64 kts 65°
2026-04-12 00:04 -44.43710 169.39605 1248 ft 0 kts 160°
2026-04-12 00:04 -44.43705 169.39603 1246 ft 2 kts 164°
2026-04-12 00:05 -44.43714 169.39611 1249 ft 0 kts 104°
2026-04-12 00:06 -44.43714 169.39610 1249 ft 0 kts 103°
2026-04-12 00:12 -44.43713 169.39610 1249 ft 0 kts 99°
2026-04-12 00:21 -44.43714 169.39611 1250 ft 0 kts 96°
2026-04-12 00:21 -44.43714 169.39613 1250 ft 0 kts 95°
2026-04-12 00:22 -44.43714 169.39612 1250 ft 0 kts 95°
2026-04-12 00:25 -44.43713 169.39612 1250 ft 0 kts 92°
2026-04-12 00:32 -44.43713 169.39613 1257 ft 0 kts 87°
2026-04-12 00:34 -44.43713 169.39614 1256 ft 0 kts 85°
2026-04-12 00:43 -44.43712 169.39614 1256 ft 0 kts 74°
2026-04-12 00:58 -44.43712 169.39615 1254 ft 0 kts 84°
2026-04-12 01:03 -44.43712 169.39614 1252 ft 0 kts 84°
2026-04-12 01:05 -44.43712 169.39615 1252 ft 0 kts 84°